createdAt,value
2022-10-14T00:00:43.408Z,12.43
2022-10-14T00:03:10.058Z,13.77
2022-10-14T00:05:40.115Z,13.98
2022-10-14T00:08:08.926Z,12.10
2022-10-14T00:10:39.685Z,11.88
2022-10-14T00:13:06.622Z,12.40
2022-10-14T00:15:40.658Z,14.55
2022-10-14T00:18:09.466Z,13.55
2022-10-14T00:20:36.390Z,13.65
2022-10-14T00:23:03.212Z,12.13
2022-10-14T00:25:30.127Z,12.63
2022-10-14T00:27:56.787Z,12.98
2022-10-14T00:30:23.463Z,14.20
2022-10-14T00:32:49.995Z,12.45
2022-10-14T00:35:16.646Z,13.55
2022-10-14T00:37:43.231Z,12.88
2022-10-14T00:40:10.408Z,13.07
2022-10-14T00:42:36.917Z,11.48
2022-10-14T00:45:12.353Z,13.25
2022-10-14T00:47:39.348Z,12.40
2022-10-14T00:50:09.463Z,13.13
2022-10-14T00:52:36.158Z,12.73
2022-10-14T00:55:07.017Z,11.75
2022-10-14T00:57:35.408Z,12.68
2022-10-14T01:00:08.744Z,12.65
2022-10-14T01:02:35.813Z,12.90
2022-10-14T01:05:03.403Z,12.50
2022-10-14T01:07:32.937Z,11.93
2022-10-14T01:10:09.660Z,12.85
2022-10-14T01:12:57.672Z,12.50
2022-10-14T01:16:09.370Z,12.75
2022-10-14T01:19:05.929Z,14.30
2022-10-14T01:21:40.177Z,11.52
2022-10-14T01:24:26.337Z,12.52
2022-10-14T01:27:15.565Z,13.13
2022-10-14T01:30:10.285Z,12.88
2022-10-14T01:32:48.575Z,13.55
2022-10-14T01:35:31.163Z,11.95
2022-10-14T01:38:06.742Z,13.15
2022-10-14T01:40:37.536Z,13.80
2022-10-14T01:43:04.900Z,13.52
2022-10-14T01:45:33.972Z,12.57
2022-10-14T01:48:01.858Z,13.70
2022-10-14T01:50:29.193Z,12.88
2022-10-14T01:53:04.321Z,12.95
2022-10-14T01:55:35.571Z,13.07
2022-10-14T01:58:02.634Z,13.75
2022-10-14T02:00:29.461Z,12.65
2022-10-14T02:03:00.979Z,14.45
2022-10-14T02:05:27.425Z,13.93
2022-10-14T02:08:03.110Z,13.15
2022-10-14T02:10:40.858Z,14.73
2022-10-14T02:13:26.835Z,13.23
2022-10-14T02:16:19.821Z,13.40
2022-10-14T02:19:02.467Z,11.98
2022-10-14T02:21:35.502Z,11.25
2022-10-14T02:24:07.015Z,11.68
2022-10-14T02:26:34.430Z,12.63
2022-10-14T02:29:01.861Z,13.88
2022-10-14T02:31:28.542Z,11.80
2022-10-14T02:33:58.822Z,13.02
2022-10-14T02:36:26.415Z,12.07
2022-10-14T02:38:55.175Z,12.15
2022-10-14T02:41:23.140Z,14.55
2022-10-14T02:43:49.997Z,12.27
2022-10-14T02:46:20.238Z,13.25
2022-10-14T02:48:46.876Z,12.18
2022-10-14T02:51:13.441Z,13.52
2022-10-14T02:53:40.028Z,13.35
2022-10-14T02:56:07.242Z,11.70
2022-10-14T02:58:34.327Z,12.52
2022-10-14T03:01:00.858Z,13.70
2022-10-14T03:03:28.348Z,14.77
2022-10-14T03:05:55.138Z,12.40
2022-10-14T03:08:21.782Z,13.35
2022-10-14T03:10:48.572Z,13.05
2022-10-14T03:13:16.071Z,13.32
2022-10-14T03:15:49.452Z,12.48
2022-10-14T03:18:18.058Z,13.15
2022-10-14T03:20:47.657Z,13.55
2022-10-14T03:23:22.599Z,14.20
2022-10-14T03:25:52.689Z,11.38
2022-10-14T03:28:26.465Z,12.40
2022-10-14T03:31:04.217Z,13.40
2022-10-14T03:33:44.398Z,13.60
2022-10-14T03:36:13.077Z,12.00
2022-10-14T03:38:49.928Z,12.38
2022-10-14T03:41:29.954Z,11.65
2022-10-14T03:43:56.849Z,10.77
2022-10-14T03:46:23.501Z,14.15
2022-10-14T03:48:51.204Z,13.48
2022-10-14T03:51:18.383Z,11.60
2022-10-14T03:53:46.043Z,13.02
2022-10-14T03:56:17.392Z,12.48
2022-10-14T03:58:47.489Z,13.02
2022-10-14T04:01:14.803Z,12.60
2022-10-14T04:04:13.826Z,13.05
2022-10-14T04:06:40.910Z,11.40
2022-10-14T04:09:08.545Z,11.18
2022-10-14T04:11:38.991Z,13.23
2022-10-14T04:14:09.742Z,11.88
2022-10-14T04:16:49.527Z,13.10
2022-10-14T04:19:17.409Z,12.82
2022-10-14T04:21:44.619Z,12.02
2022-10-14T04:24:11.548Z,10.48
2022-10-14T04:26:52.123Z,9.75
2022-10-14T04:29:41.997Z,10.20
2022-10-14T04:32:15.761Z,10.52
2022-10-14T04:34:42.692Z,11.18
2022-10-14T04:37:12.543Z,10.75
2022-10-14T04:39:57.825Z,10.18
2022-10-14T04:42:26.242Z,11.50
2022-10-14T04:44:58.328Z,10.57
2022-10-14T04:47:37.823Z,12.00
2022-10-14T04:50:04.837Z,11.32
2022-10-14T04:52:32.592Z,11.98
2022-10-14T04:55:05.922Z,9.43
2022-10-14T04:57:36.648Z,10.10
2022-10-14T05:00:04.842Z,10.45
2022-10-14T05:02:50.140Z,11.85
2022-10-14T05:05:16.968Z,8.95
2022-10-14T05:07:46.858Z,10.98
2022-10-14T05:10:22.143Z,10.32
2022-10-14T05:12:51.310Z,10.43
2022-10-14T05:15:19.572Z,9.82
2022-10-14T05:18:11.505Z,10.25
2022-10-14T05:20:59.424Z,11.52
2022-10-14T05:23:36.844Z,10.85
2022-10-14T05:26:03.688Z,11.27
2022-10-14T05:28:31.026Z,9.85
2022-10-14T05:30:57.808Z,10.95
2022-10-14T05:33:24.389Z,11.55
2022-10-14T05:35:58.932Z,10.35
2022-10-14T05:38:31.800Z,10.32
2022-10-14T05:40:58.538Z,9.70
2022-10-14T05:43:30.966Z,11.45
2022-10-14T05:46:00.445Z,8.88
2022-10-14T05:48:29.338Z,9.35
2022-10-14T05:51:01.315Z,10.43
2022-10-14T05:53:28.830Z,10.77
2022-10-14T05:56:10.919Z,10.63
2022-10-14T05:58:39.933Z,10.00
2022-10-14T06:01:09.731Z,9.20
2022-10-14T06:03:39.521Z,9.05
2022-10-14T06:06:07.478Z,9.48
2022-10-14T06:08:33.979Z,9.75
2022-10-14T06:11:03.266Z,10.63
2022-10-14T06:13:30.041Z,8.80
2022-10-14T06:16:05.982Z,8.98
2022-10-14T06:18:33.267Z,10.07
2022-10-14T06:21:00.323Z,9.25
2022-10-14T06:23:27.294Z,9.80
2022-10-14T06:25:53.835Z,9.90
2022-10-14T06:28:20.453Z,10.25
2022-10-14T06:30:54.007Z,9.15
2022-10-14T06:33:21.361Z,8.30
2022-10-14T06:35:47.949Z,8.90
2022-10-14T06:38:15.086Z,10.32
2022-10-14T06:40:41.647Z,9.43
2022-10-14T06:43:08.235Z,8.43
2022-10-14T06:45:34.819Z,10.18
2022-10-14T06:48:01.535Z,10.07
2022-10-14T06:50:28.044Z,8.68
2022-10-14T06:52:54.718Z,8.82
2022-10-14T06:55:21.304Z,10.07
2022-10-14T06:57:47.811Z,9.10
2022-10-14T07:00:14.782Z,11.00
2022-10-14T07:02:41.512Z,8.45
2022-10-14T07:05:08.390Z,9.32
2022-10-14T07:07:34.911Z,9.18
2022-10-14T07:10:01.529Z,9.25
2022-10-14T07:12:28.131Z,10.35
2022-10-14T07:14:54.622Z,9.15
2022-10-14T07:17:21.377Z,8.95
2022-10-14T07:19:48.059Z,9.80
2022-10-14T07:22:16.538Z,9.85
2022-10-14T07:24:43.778Z,9.18
2022-10-14T07:27:10.769Z,8.07
2022-10-14T07:29:37.399Z,8.23
2022-10-14T07:32:04.931Z,9.40
2022-10-14T07:34:33.593Z,9.77
2022-10-14T07:37:00.513Z,9.00
2022-10-14T07:39:27.615Z,12.20
2022-10-14T07:41:54.316Z,7.80
2022-10-14T07:44:23.623Z,9.25
2022-10-14T07:46:53.106Z,9.32
2022-10-14T07:49:20.502Z,8.75
2022-10-14T07:51:47.809Z,8.73
2022-10-14T07:54:17.277Z,7.50
2022-10-14T07:56:44.483Z,8.52
2022-10-14T07:59:11.849Z,8.07
2022-10-14T08:01:38.675Z,7.50
2022-10-14T08:04:05.523Z,8.23
2022-10-14T08:06:32.213Z,8.10
2022-10-14T08:08:58.739Z,8.32
2022-10-14T08:11:27.301Z,7.88
2022-10-14T08:13:54.191Z,7.57
2022-10-14T08:16:23.373Z,7.75
2022-10-14T08:18:50.669Z,7.78
2022-10-14T08:21:18.675Z,8.23
2022-10-14T08:23:45.394Z,7.25
2022-10-14T08:26:21.379Z,8.52
2022-10-14T08:28:49.283Z,7.45
2022-10-14T08:31:16.459Z,9.18
2022-10-14T08:33:43.094Z,8.05
2022-10-14T08:36:09.878Z,8.60
2022-10-14T08:38:36.471Z,8.35
2022-10-14T08:41:12.252Z,8.85
2022-10-14T08:43:42.521Z,8.02
2022-10-14T08:46:25.292Z,8.32
2022-10-14T08:49:06.614Z,9.43
2022-10-14T08:54:06.463Z,9.07
2022-10-14T08:56:35.290Z,8.60
2022-10-14T08:59:06.866Z,7.50
2022-10-14T09:01:36.261Z,8.68
2022-10-14T09:04:07.643Z,9.23
2022-10-14T09:06:35.830Z,8.52
2022-10-14T09:09:24.168Z,7.85
2022-10-14T09:11:54.656Z,8.95
2022-10-14T09:14:25.893Z,7.32
2022-10-14T09:17:00.345Z,8.48
2022-10-14T09:19:28.661Z,8.00
2022-10-14T09:21:55.652Z,9.75
2022-10-14T09:24:36.735Z,9.07
2022-10-14T09:27:06.495Z,10.10
2022-10-14T09:29:40.956Z,10.32
2022-10-14T09:32:12.349Z,11.15
2022-10-14T09:34:41.279Z,8.75
2022-10-14T09:37:22.294Z,10.88
2022-10-14T09:42:20.403Z,9.23
2022-10-14T09:45:04.653Z,10.23
2022-10-14T09:47:31.390Z,10.07
2022-10-14T09:50:00.602Z,9.82
2022-10-14T09:52:34.014Z,10.45
2022-10-14T09:55:01.579Z,10.98
2022-10-14T09:57:28.395Z,9.95
2022-10-14T10:00:04.957Z,10.48
2022-10-14T10:02:40.649Z,9.20
2022-10-14T10:05:28.685Z,11.73
2022-10-14T10:08:17.658Z,11.13
2022-10-14T10:11:05.461Z,10.60
2022-10-14T10:13:43.280Z,10.82
2022-10-14T10:16:25.071Z,11.05
2022-10-14T10:18:54.027Z,10.65
2022-10-14T10:21:30.137Z,9.50
2022-10-14T10:23:59.138Z,9.52
2022-10-14T10:26:31.586Z,12.05
2022-10-14T10:29:03.016Z,12.40
2022-10-14T10:31:51.117Z,9.98
2022-10-14T10:34:39.163Z,13.30
2022-10-14T10:37:22.963Z,12.63
2022-10-14T10:40:08.489Z,12.90
2022-10-14T10:42:54.401Z,12.38
2022-10-14T10:45:50.020Z,11.70
2022-10-14T10:48:30.455Z,11.68
2022-10-14T10:51:00.781Z,12.02
2022-10-14T10:53:55.721Z,11.80
2022-10-14T10:56:46.773Z,13.70
2022-10-14T10:59:44.316Z,11.43
2022-10-14T11:02:17.244Z,12.10
2022-10-14T11:04:46.252Z,13.75
2022-10-14T11:07:48.827Z,13.07
2022-10-14T11:10:34.141Z,12.95
2022-10-14T11:13:20.914Z,13.98
2022-10-14T11:15:51.198Z,14.60
2022-10-14T11:18:35.955Z,13.02
2022-10-14T11:21:09.858Z,13.82
2022-10-14T11:23:59.606Z,13.02
2022-10-14T11:26:38.391Z,14.05
2022-10-14T11:29:23.294Z,14.15
2022-10-14T11:32:17.669Z,13.75
2022-10-14T11:34:53.933Z,13.65
2022-10-14T11:37:35.528Z,14.10
2022-10-14T11:40:18.606Z,14.35
2022-10-14T11:43:01.781Z,14.80
2022-10-14T11:45:52.484Z,12.77
2022-10-14T11:49:00.794Z,13.23
2022-10-14T11:51:38.781Z,13.07
2022-10-14T11:54:05.442Z,14.48
2022-10-14T11:56:37.868Z,13.05
2022-10-14T11:59:10.759Z,12.93
2022-10-14T12:01:41.219Z,13.00
2022-10-14T12:04:34.125Z,13.73
2022-10-14T12:07:19.951Z,12.73
2022-10-14T12:10:12.837Z,11.52
2022-10-14T12:12:40.327Z,11.98
2022-10-14T12:15:17.117Z,12.25
2022-10-14T12:17:48.066Z,12.48
2022-10-14T12:20:22.591Z,11.13
2022-10-14T12:22:50.029Z,11.05
2022-10-14T12:25:18.447Z,10.27
2022-10-14T12:27:45.307Z,10.43
2022-10-14T12:30:35.396Z,11.32
2022-10-14T12:33:07.945Z,12.50
2022-10-14T12:35:50.731Z,13.10
2022-10-14T12:38:20.110Z,13.30
2022-10-14T12:40:49.331Z,12.30
2022-10-14T12:43:19.504Z,11.90
2022-10-14T12:45:58.260Z,12.18
2022-10-14T12:48:27.107Z,10.85
2022-10-14T12:51:09.572Z,11.15
2022-10-14T12:53:37.061Z,11.43
2022-10-14T12:56:04.865Z,11.73
2022-10-14T12:58:41.830Z,12.23
2022-10-14T13:01:17.067Z,12.02
2022-10-14T13:03:54.208Z,11.30
2022-10-14T13:06:35.414Z,11.30
2022-10-14T13:09:11.320Z,10.40
2022-10-14T13:11:39.200Z,11.27
2022-10-14T13:14:53.976Z,10.88
2022-10-14T13:17:35.606Z,11.05
2022-10-14T13:20:04.404Z,10.25
2022-10-14T13:22:34.451Z,10.05
2022-10-14T13:25:08.022Z,9.45
2022-10-14T13:27:39.171Z,13.95
2022-10-14T13:30:24.838Z,14.23
2022-10-14T13:32:58.938Z,14.43
2022-10-14T13:35:43.326Z,12.43
2022-10-14T13:38:15.553Z,12.43
2022-10-14T13:40:49.181Z,13.60
2022-10-14T13:43:48.264Z,11.40
2022-10-14T13:46:22.562Z,12.35
2022-10-14T13:48:51.849Z,12.70
2022-10-14T13:51:32.012Z,13.57
2022-10-14T13:54:20.102Z,15.45
2022-10-14T13:57:19.896Z,14.05
2022-10-14T14:00:38.143Z,13.98
2022-10-14T14:02:39.596Z,12.60
2022-10-14T14:05:07.331Z,13.20
2022-10-14T14:08:22.231Z,13.10
2022-10-14T14:10:25.806Z,13.40
2022-10-14T14:12:52.734Z,13.32
2022-10-14T14:15:29.095Z,12.32
2022-10-14T14:17:55.717Z,14.80
2022-10-14T14:20:25.051Z,12.25
2022-10-14T14:22:53.203Z,12.52
2022-10-14T14:25:36.913Z,12.35
2022-10-14T14:28:13.354Z,11.80
2022-10-14T14:30:42.469Z,11.82
2022-10-14T14:33:14.606Z,11.40
2022-10-14T14:35:44.383Z,10.73
2022-10-14T14:38:25.277Z,13.02
2022-10-14T14:41:01.586Z,11.32
2022-10-14T14:43:34.733Z,12.38
2022-10-14T14:46:02.996Z,10.80
2022-10-14T14:48:30.686Z,11.05
2022-10-14T14:50:57.597Z,10.40
2022-10-14T14:53:29.467Z,9.68
2022-10-14T14:55:55.982Z,11.07
2022-10-14T14:58:31.657Z,10.50
2022-10-14T15:00:58.975Z,12.07
2022-10-14T15:03:27.894Z,10.70
2022-10-14T15:06:04.163Z,9.85
2022-10-14T15:08:36.641Z,11.02
2022-10-14T15:11:03.917Z,9.38
2022-10-14T15:13:39.792Z,10.88
2022-10-14T15:16:09.445Z,10.88
2022-10-14T15:18:37.718Z,11.68
2022-10-14T15:21:20.404Z,10.93
2022-10-14T15:23:49.817Z,10.15
2022-10-14T15:26:36.193Z,9.98
2022-10-14T15:29:08.770Z,10.23
2022-10-14T15:31:35.972Z,8.73
2022-10-14T15:34:03.197Z,8.88
2022-10-14T15:36:32.321Z,9.73
2022-10-14T15:39:01.317Z,8.20
2022-10-14T15:41:28.858Z,7.80
2022-10-14T15:43:55.398Z,7.68
2022-10-14T15:46:41.693Z,7.38
2022-10-14T15:49:16.922Z,7.40
2022-10-14T15:51:43.594Z,7.45
2022-10-14T15:54:12.443Z,7.82
2022-10-14T15:56:41.769Z,8.95
2022-10-14T15:59:08.352Z,7.80
2022-10-14T16:01:37.516Z,9.68
2022-10-14T16:04:04.324Z,10.52
2022-10-14T16:06:32.584Z,9.65
2022-10-14T16:08:59.191Z,9.10
2022-10-14T16:11:28.495Z,10.80
2022-10-14T16:13:55.684Z,9.57
2022-10-14T16:16:27.012Z,10.75
2022-10-14T16:18:54.117Z,9.07
2022-10-14T16:21:20.750Z,9.70
2022-10-14T16:23:47.426Z,9.25
2022-10-14T16:26:14.403Z,9.05
2022-10-14T16:28:41.018Z,9.88
2022-10-14T16:31:10.437Z,11.70
2022-10-14T16:33:38.343Z,8.70
2022-10-14T16:36:13.638Z,10.32
2022-10-14T16:38:40.178Z,10.43
2022-10-14T16:41:09.723Z,8.80
2022-10-14T16:43:36.503Z,8.73
2022-10-14T16:46:05.788Z,9.70
2022-10-14T16:48:33.497Z,9.43
2022-10-14T16:51:00.350Z,11.10
2022-10-14T16:53:41.419Z,11.90
2022-10-14T16:58:57.150Z,11.32
2022-10-14T17:01:23.962Z,10.73
2022-10-14T17:03:50.591Z,11.55
2022-10-14T17:06:23.190Z,10.35
2022-10-14T17:08:50.936Z,12.00
2022-10-14T17:11:18.299Z,11.35
2022-10-14T17:13:45.062Z,10.43
2022-10-14T17:16:11.593Z,11.55
2022-10-14T17:18:38.963Z,11.13
2022-10-14T17:21:07.629Z,11.85
2022-10-14T17:23:35.629Z,11.32
2022-10-14T17:26:04.334Z,12.70
2022-10-14T17:28:31.392Z,11.70
2022-10-14T17:30:58.601Z,11.35
2022-10-14T17:33:26.103Z,11.93
2022-10-14T17:36:02.466Z,10.70
2022-10-14T17:38:30.203Z,11.43
2022-10-14T17:41:08.172Z,12.32
2022-10-14T17:43:36.714Z,13.02
2022-10-14T17:46:05.350Z,10.57
2022-10-14T17:48:33.130Z,11.50
2022-10-14T17:50:59.826Z,11.50
2022-10-14T17:53:26.316Z,11.93
2022-10-14T17:55:55.401Z,11.90
2022-10-14T17:58:24.291Z,11.77
2022-10-14T18:00:50.835Z,11.50
2022-10-14T18:03:18.379Z,12.35
2022-10-14T18:05:48.807Z,11.52
2022-10-14T18:08:15.743Z,12.65
2022-10-14T18:10:42.391Z,13.20
2022-10-14T18:13:08.939Z,12.63
2022-10-14T18:15:36.280Z,14.05
2022-10-14T18:18:02.958Z,12.25
2022-10-14T18:20:29.550Z,13.77
2022-10-14T18:22:56.437Z,13.50
2022-10-14T18:25:23.424Z,14.25
2022-10-14T18:27:50.253Z,14.38
2022-10-14T18:30:16.854Z,14.88
2022-10-14T18:32:43.389Z,13.85
2022-10-14T18:35:10.215Z,14.23
2022-10-14T18:37:36.754Z,13.38
2022-10-14T18:40:03.740Z,13.77
2022-10-14T18:42:30.378Z,12.20
2022-10-14T18:44:59.045Z,12.65
2022-10-14T18:47:25.712Z,13.95
2022-10-14T18:49:52.310Z,14.43
2022-10-14T18:52:20.794Z,13.25
2022-10-14T18:54:47.607Z,12.13
2022-10-14T18:57:14.932Z,12.52
2022-10-14T18:59:41.791Z,13.57
2022-10-14T19:02:12.568Z,12.75
2022-10-14T19:04:39.245Z,13.07
2022-10-14T19:07:08.442Z,12.68
2022-10-14T19:09:35.174Z,11.45
2022-10-14T19:12:21.864Z,12.68
2022-10-14T19:14:48.725Z,13.25
2022-10-14T19:17:15.362Z,13.93
2022-10-14T19:19:42.460Z,13.95
2022-10-14T19:22:10.442Z,13.70
2022-10-14T19:24:36.934Z,13.48
2022-10-14T19:27:03.525Z,13.52
2022-10-14T19:29:30.053Z,13.18
2022-10-14T19:31:57.200Z,14.52
2022-10-14T19:34:26.924Z,12.52
2022-10-14T19:36:53.881Z,13.77
2022-10-14T19:39:20.406Z,13.38
2022-10-14T19:41:47.364Z,13.55
2022-10-14T19:44:15.103Z,13.05
2022-10-14T19:46:41.782Z,13.10
2022-10-14T19:49:11.197Z,13.10
2022-10-14T19:51:38.513Z,12.55
2022-10-14T19:54:05.239Z,13.70
2022-10-14T19:56:31.762Z,14.15
2022-10-14T19:58:58.950Z,12.90
2022-10-14T20:01:27.929Z,13.48
2022-10-14T20:03:54.569Z,12.45
2022-10-14T20:06:22.086Z,14.30
2022-10-14T20:08:49.801Z,13.77
2022-10-14T20:11:18.529Z,13.40
2022-10-14T20:13:45.469Z,13.73
2022-10-14T20:16:13.016Z,14.13
2022-10-14T20:18:39.624Z,13.65
2022-10-14T20:21:07.410Z,13.10
2022-10-14T20:23:35.130Z,14.23
2022-10-14T20:26:03.216Z,12.07
2022-10-14T20:28:29.903Z,14.00
2022-10-14T20:30:57.408Z,13.98
2022-10-14T20:33:24.632Z,14.98
2022-10-14T20:36:06.240Z,12.98
2022-10-14T20:38:33.876Z,12.57
2022-10-14T20:41:06.759Z,13.50
2022-10-14T20:43:33.394Z,14.07
2022-10-14T20:46:00.156Z,13.75
2022-10-14T20:48:26.724Z,15.13
2022-10-14T20:50:53.268Z,12.93
2022-10-14T20:53:19.905Z,16.67
2022-10-14T20:55:46.469Z,15.38
2022-10-14T20:58:12.968Z,15.55
2022-10-14T21:00:39.536Z,14.55
2022-10-14T21:03:06.163Z,13.63
2022-10-14T21:05:37.035Z,15.98
2022-10-14T21:08:04.474Z,13.93
2022-10-14T21:10:30.974Z,15.38
2022-10-14T21:12:57.530Z,14.43
2022-10-14T21:15:26.783Z,15.48
2022-10-14T21:17:53.298Z,14.77
2022-10-14T21:20:19.879Z,14.95
2022-10-14T21:22:46.468Z,14.05
2022-10-14T21:25:13.022Z,13.82
2022-10-14T21:27:39.535Z,15.23
2022-10-14T21:30:06.771Z,15.30
2022-10-14T21:32:33.278Z,15.35
2022-10-14T21:34:59.884Z,14.55
2022-10-14T21:37:26.386Z,12.98
2022-10-14T21:39:52.915Z,13.82
2022-10-14T21:42:19.715Z,14.93
2022-10-14T21:44:46.291Z,14.73
2022-10-14T21:47:12.872Z,12.32
2022-10-14T21:49:39.467Z,15.70
2022-10-14T21:52:06.268Z,14.68
2022-10-14T21:54:32.770Z,13.15
2022-10-14T21:56:59.297Z,13.07
2022-10-14T21:59:25.834Z,15.55
2022-10-14T22:01:56.361Z,14.90
2022-10-14T22:04:22.910Z,14.88
2022-10-14T22:06:49.419Z,14.90
2022-10-14T22:09:15.940Z,14.95
2022-10-14T22:11:42.532Z,14.75
2022-10-14T22:14:14.878Z,14.75
2022-10-14T22:16:41.479Z,13.85
2022-10-14T22:19:08.098Z,15.65
2022-10-14T22:21:36.448Z,15.10
2022-10-14T22:24:03.625Z,15.20
2022-10-14T22:26:30.889Z,14.93
2022-10-14T22:28:58.944Z,15.65
2022-10-14T22:31:25.988Z,16.65
2022-10-14T22:33:52.647Z,15.18
2022-10-14T22:36:23.837Z,15.75
2022-10-14T22:38:52.300Z,13.98
2022-10-14T22:41:19.968Z,14.85
2022-10-14T22:43:51.703Z,13.38
2022-10-14T22:46:20.351Z,15.52
2022-10-14T22:48:50.789Z,13.85
2022-10-14T22:51:19.135Z,13.55
2022-10-14T22:53:46.821Z,15.45
2022-10-14T22:56:16.031Z,14.20
2022-10-14T22:58:43.085Z,14.35
2022-10-14T23:01:15.257Z,13.32
2022-10-14T23:03:42.527Z,13.15
2022-10-14T23:06:11.655Z,14.95
2022-10-14T23:08:38.589Z,14.38
2022-10-14T23:11:06.250Z,16.15
2022-10-14T23:13:33.399Z,13.82
2022-10-14T23:16:05.872Z,16.25
2022-10-14T23:18:35.073Z,16.33
2022-10-14T23:21:13.546Z,13.98
2022-10-14T23:23:40.181Z,14.80
2022-10-14T23:26:09.607Z,15.27
2022-10-14T23:28:36.494Z,15.40
2022-10-14T23:31:15.587Z,15.80
2022-10-14T23:33:42.379Z,15.45
2022-10-14T23:36:11.598Z,15.73
2022-10-14T23:38:39.292Z,12.85
2022-10-14T23:41:06.772Z,16.92
2022-10-14T23:43:33.480Z,17.40
2022-10-14T23:46:00.122Z,13.82
2022-10-14T23:48:27.050Z,15.13
2022-10-14T23:50:53.598Z,13.85
2022-10-14T23:53:20.412Z,14.77
2022-10-14T23:55:47.317Z,15.45
2022-10-14T23:58:13.866Z,14.98
